GLD166 SNSG-SNRU
Flight info
| Callsign | GLD166 |
|---|---|
| Flight time | N/A |
| Altitude | 3500 |
| Route | 0801S03820W 0803S03739W 0801S03716W 0808S03615W |
| Aircraft | C182/M-SDFGIRY/S |
Departure
| Time | 2026-04-23 20:43 |
|---|---|
| Airport | Salgueiro Airport (SNSG) |
Arrival
| Time | N/A |
|---|---|
| Airport | Caruaru Airport (SNRU) |
| Time | Latitude | Longitude | Altitude | Speed | Heading |
|---|---|---|---|---|---|
| 2026-04-23 20:41 | -8.04538 | -39.13542 | 1545 ft | 0 kts | 225° |
| 2026-04-23 20:42 | -8.04519 | -39.13546 | 1542 ft | 6 kts | 63° |
| 2026-04-23 20:42 | -8.04513 | -39.13531 | 1541 ft | 0 kts | 66° |
| 2026-04-23 20:42 | -8.04497 | -39.13487 | 1547 ft | 16 kts | 90° |
| 2026-04-23 20:42 | -8.04650 | -39.13353 | 1544 ft | 52 kts | 144° |
| 2026-04-23 20:43 | -8.05060 | -39.13048 | 1582 ft | 88 kts | 143° |
| 2026-04-23 20:43 | -8.05550 | -39.12588 | 1790 ft | 98 kts | 124° |
| 2026-04-23 20:43 | -8.05657 | -39.11900 | 2029 ft | 111 kts | 73° |
| 2026-04-23 20:43 | -8.05120 | -39.11407 | 2382 ft | 106 kts | 16° |
| 2026-04-23 20:44 | -8.04640 | -39.10856 | 2566 ft | 120 kts | 77° |
| 2026-04-23 20:44 | -8.04456 | -39.09994 | 2726 ft | 130 kts | 77° |
| 2026-04-23 20:44 | -8.04328 | -39.09059 | 2888 ft | 138 kts | 85° |
| 2026-04-23 20:44 | -8.04276 | -39.08078 | 3047 ft | 141 kts | 88° |
| 2026-04-23 20:45 | -8.04267 | -39.07078 | 3203 ft | 143 kts | 91° |
| 2026-04-23 20:45 | -8.04313 | -39.06069 | 3357 ft | 145 kts | 92° |
| 2026-04-23 20:45 | -8.04360 | -39.05048 | 3509 ft | 146 kts | 92° |
| 2026-04-23 20:45 | -8.04404 | -39.04044 | 3669 ft | 146 kts | 92° |
| 2026-04-23 20:46 | -8.04452 | -39.03008 | 3822 ft | 148 kts | 92° |
| 2026-04-23 20:46 | -8.04502 | -39.01959 | 3973 ft | 151 kts | 92° |
| 2026-04-23 20:46 | -8.04550 | -39.00906 | 4113 ft | 149 kts | 92° |
| 2026-04-23 20:46 | -8.04596 | -38.99872 | 4269 ft | 146 kts | 92° |
| 2026-04-23 20:47 | -8.04643 | -38.98847 | 4419 ft | 147 kts | 93° |
| 2026-04-23 20:47 | -8.04696 | -38.97809 | 4568 ft | 149 kts | 93° |
| 2026-04-23 20:47 | -8.04746 | -38.96765 | 4712 ft | 148 kts | 92° |
| 2026-04-23 20:47 | -8.04796 | -38.95736 | 4863 ft | 146 kts | 93° |
| 2026-04-23 20:48 | -8.04849 | -38.94656 | 4591 ft | 169 kts | 93° |
| 2026-04-23 20:48 | -8.04911 | -38.93378 | 3877 ft | 193 kts | 92° |
| 2026-04-23 20:48 | -8.04970 | -38.92024 | 3455 ft | 187 kts | 93° |
| 2026-04-23 20:48 | -8.05024 | -38.90786 | 3457 ft | 174 kts | 90° |
| 2026-04-23 20:49 | -8.04948 | -38.89588 | 3452 ft | 169 kts | 85° |
| 2026-04-23 20:49 | -8.04866 | -38.88410 | 3443 ft | 166 kts | 86° |
| 2026-04-23 20:49 | -8.04786 | -38.87258 | 3447 ft | 163 kts | 86° |
| 2026-04-23 20:49 | -8.04705 | -38.86111 | 3444 ft | 164 kts | 85° |
| 2026-04-23 20:50 | -8.04626 | -38.84961 | 3444 ft | 164 kts | 86° |
| 2026-04-23 20:50 | -8.04548 | -38.83813 | 3442 ft | 163 kts | 86° |
| 2026-04-23 20:50 | -8.04474 | -38.82671 | 3442 ft | 163 kts | 86° |
| 2026-04-23 20:50 | -8.04397 | -38.81528 | 3439 ft | 163 kts | 86° |
| 2026-04-23 20:51 | -8.04318 | -38.80390 | 3439 ft | 162 kts | 86° |
| 2026-04-23 20:51 | -8.04243 | -38.79255 | 3442 ft | 162 kts | 86° |
| 2026-04-23 20:51 | -8.04168 | -38.78114 | 3441 ft | 163 kts | 86° |
| 2026-04-23 20:51 | -8.04089 | -38.76971 | 3437 ft | 163 kts | 86° |
| 2026-04-23 20:52 | -8.04017 | -38.75832 | 3446 ft | 164 kts | 86° |
| 2026-04-23 20:52 | -8.03943 | -38.74701 | 3449 ft | 164 kts | 86° |
| 2026-04-23 20:52 | -8.03869 | -38.73538 | 3452 ft | 167 kts | 86° |
| 2026-04-23 20:52 | -8.03795 | -38.72373 | 3442 ft | 165 kts | 86° |
| 2026-04-23 20:53 | -8.03720 | -38.71218 | 3450 ft | 166 kts | 86° |
| 2026-04-23 20:53 | -8.03646 | -38.70057 | 3452 ft | 165 kts | 86° |
| 2026-04-23 20:53 | -8.03572 | -38.68904 | 3446 ft | 164 kts | 86° |
| 2026-04-23 20:53 | -8.03498 | -38.67752 | 3450 ft | 164 kts | 86° |
| 2026-04-23 20:54 | -8.03427 | -38.66600 | 3439 ft | 164 kts | 86° |
| 2026-04-23 20:54 | -8.03358 | -38.65454 | 3442 ft | 164 kts | 86° |
| 2026-04-23 20:54 | -8.03285 | -38.64308 | 3442 ft | 164 kts | 86° |
| 2026-04-23 20:54 | -8.03215 | -38.63163 | 3443 ft | 163 kts | 86° |
| 2026-04-23 20:55 | -8.03147 | -38.62020 | 3440 ft | 163 kts | 86° |
| 2026-04-23 20:55 | -8.03075 | -38.60882 | 3446 ft | 163 kts | 86° |
| 2026-04-23 20:55 | -8.03007 | -38.59755 | 3446 ft | 162 kts | 86° |
| 2026-04-23 20:55 | -8.02937 | -38.58605 | 3439 ft | 162 kts | 86° |
| 2026-04-23 20:56 | -8.02870 | -38.57486 | 3439 ft | 162 kts | 86° |
| 2026-04-23 20:56 | -8.02805 | -38.56353 | 3442 ft | 162 kts | 86° |
| 2026-04-23 20:56 | -8.02736 | -38.55206 | 3450 ft | 163 kts | 86° |
| 2026-04-23 20:56 | -8.02669 | -38.54062 | 3441 ft | 166 kts | 87° |
| 2026-04-23 20:57 | -8.02603 | -38.52902 | 3448 ft | 166 kts | 85° |
| 2026-04-23 20:57 | -8.02533 | -38.51732 | 3449 ft | 167 kts | 87° |
| 2026-04-23 20:57 | -8.02466 | -38.50567 | 3443 ft | 165 kts | 86° |
| 2026-04-23 20:57 | -8.02398 | -38.49419 | 3443 ft | 164 kts | 86° |
| 2026-04-23 20:58 | -8.02332 | -38.48271 | 3452 ft | 165 kts | 86° |
| 2026-04-23 20:58 | -8.02263 | -38.47113 | 3453 ft | 165 kts | 86° |
| 2026-04-23 20:58 | -8.02202 | -38.45958 | 3441 ft | 165 kts | 87° |
| 2026-04-23 20:58 | -8.02138 | -38.44805 | 3451 ft | 164 kts | 86° |
| 2026-04-23 20:59 | -8.02078 | -38.43652 | 3444 ft | 164 kts | 87° |
| 2026-04-23 20:59 | -8.02013 | -38.42504 | 3442 ft | 164 kts | 86° |
| 2026-04-23 20:59 | -8.01951 | -38.41352 | 3448 ft | 165 kts | 86° |
| 2026-04-23 20:59 | -8.01883 | -38.40195 | 3441 ft | 164 kts | 86° |
| 2026-04-23 21:00 | -8.01822 | -38.39065 | 3449 ft | 163 kts | 86° |
| 2026-04-23 21:00 | -8.01762 | -38.37909 | 3450 ft | 166 kts | 87° |
| 2026-04-23 21:00 | -8.01701 | -38.36745 | 3451 ft | 166 kts | 86° |
| 2026-04-23 21:00 | -8.01637 | -38.35581 | 3446 ft | 166 kts | 87° |
| 2026-04-23 21:01 | -8.01577 | -38.34418 | 3451 ft | 167 kts | 86° |
| 2026-04-23 21:01 | -8.01514 | -38.33245 | 3453 ft | 168 kts | 86° |
| 2026-04-23 21:01 | -8.01456 | -38.32074 | 3446 ft | 167 kts | 87° |
| 2026-04-23 21:01 | -8.01399 | -38.30912 | 3453 ft | 166 kts | 87° |
| 2026-04-23 21:02 | -8.01339 | -38.29741 | 3448 ft | 166 kts | 87° |
| 2026-04-23 21:02 | -8.01282 | -38.28577 | 3448 ft | 165 kts | 87° |
| 2026-04-23 21:02 | -8.01218 | -38.27417 | 3447 ft | 165 kts | 87° |
| 2026-04-23 21:02 | -8.01161 | -38.26263 | 3442 ft | 164 kts | 87° |
| 2026-04-23 21:03 | -8.01106 | -38.25115 | 3459 ft | 163 kts | 87° |
| 2026-04-23 21:03 | -8.01052 | -38.23998 | 3503 ft | 162 kts | 87° |
| 2026-04-23 21:03 | -8.00996 | -38.22852 | 3501 ft | 164 kts | 87° |
| 2026-04-23 21:03 | -8.00940 | -38.21702 | 3503 ft | 165 kts | 87° |
| 2026-04-23 21:04 | -8.00883 | -38.20543 | 3506 ft | 166 kts | 87° |
| 2026-04-23 21:04 | -8.00826 | -38.19378 | 3499 ft | 166 kts | 87° |
| 2026-04-23 21:04 | -8.00771 | -38.18222 | 3506 ft | 164 kts | 87° |
| 2026-04-23 21:04 | -8.00716 | -38.17064 | 3501 ft | 166 kts | 87° |
| 2026-04-23 21:05 | -8.00662 | -38.15907 | 3504 ft | 165 kts | 87° |
| 2026-04-23 21:05 | -8.00608 | -38.14753 | 3505 ft | 165 kts | 87° |
| 2026-04-23 21:05 | -8.00555 | -38.13608 | 3499 ft | 165 kts | 87° |
| 2026-04-23 21:05 | -8.00504 | -38.12453 | 3501 ft | 164 kts | 87° |
| 2026-04-23 21:06 | -8.00449 | -38.11289 | 3505 ft | 163 kts | 87° |
| 2026-04-23 21:06 | -8.00398 | -38.10164 | 3500 ft | 162 kts | 87° |
| 2026-04-23 21:06 | -8.00358 | -38.09024 | 3497 ft | 163 kts | 91° |
| 2026-04-23 21:06 | -8.00555 | -38.07897 | 3490 ft | 163 kts | 104° |
| 2026-04-23 21:07 | -8.00863 | -38.06797 | 3489 ft | 163 kts | 106° |
| 2026-04-23 21:07 | -8.01181 | -38.05702 | 3488 ft | 162 kts | 106° |
| 2026-04-23 21:07 | -8.01496 | -38.04610 | 3485 ft | 162 kts | 106° |
| 2026-04-23 21:07 | -8.01814 | -38.03517 | 3490 ft | 163 kts | 107° |
| 2026-04-23 21:08 | -8.02135 | -38.02420 | 3485 ft | 162 kts | 107° |
| 2026-04-23 21:08 | -8.02450 | -38.01333 | 3489 ft | 161 kts | 106° |
| 2026-04-23 21:08 | -8.02767 | -38.00242 | 3490 ft | 163 kts | 107° |
| 2026-04-23 21:08 | -8.03088 | -37.99146 | 3488 ft | 163 kts | 107° |
| 2026-04-23 21:09 | -8.03408 | -37.98049 | 3495 ft | 163 kts | 106° |
| 2026-04-23 21:09 | -8.03728 | -37.96951 | 3490 ft | 163 kts | 107° |
| 2026-04-23 21:09 | -8.04048 | -37.95858 | 3492 ft | 163 kts | 106° |
| 2026-04-23 21:09 | -8.04370 | -37.94759 | 3489 ft | 163 kts | 107° |
| 2026-04-23 21:10 | -8.04694 | -37.93657 | 3489 ft | 163 kts | 107° |
| 2026-04-23 21:10 | -8.04799 | -37.93300 | 3497 ft | 164 kts | 107° |
| 2026-04-23 21:10 | -8.05651 | -37.90403 | 3497 ft | 163 kts | 107° |
| 2026-04-23 21:11 | -8.05977 | -37.89303 | 3488 ft | 163 kts | 107° |
| 2026-04-23 21:11 | -8.06302 | -37.88207 | 3489 ft | 163 kts | 107° |
| 2026-04-23 21:11 | -8.06623 | -37.87111 | 3490 ft | 163 kts | 107° |
| 2026-04-23 21:11 | -8.06949 | -37.86011 | 3496 ft | 164 kts | 107° |
| 2026-04-23 21:12 | -8.07273 | -37.84909 | 3489 ft | 163 kts | 107° |
| 2026-04-23 21:12 | -8.07596 | -37.83826 | 3487 ft | 163 kts | 107° |
| 2026-04-23 21:12 | -8.07922 | -37.82731 | 3488 ft | 163 kts | 107° |
| 2026-04-23 21:12 | -8.08247 | -37.81640 | 3487 ft | 162 kts | 107° |
| 2026-04-23 21:13 | -8.08573 | -37.80552 | 3485 ft | 161 kts | 107° |
| 2026-04-23 21:13 | -8.08895 | -37.79467 | 3484 ft | 162 kts | 107° |
| 2026-04-23 21:13 | -8.09220 | -37.78382 | 3488 ft | 162 kts | 107° |
| 2026-04-23 21:13 | -8.09548 | -37.77293 | 3492 ft | 163 kts | 107° |
| 2026-04-23 21:14 | -8.09878 | -37.76193 | 3488 ft | 164 kts | 107° |
| 2026-04-23 21:14 | -8.10209 | -37.75094 | 3489 ft | 164 kts | 107° |
| 2026-04-23 21:14 | -8.10539 | -37.73998 | 3489 ft | 163 kts | 107° |
| 2026-04-23 21:14 | -8.10868 | -37.72907 | 3490 ft | 163 kts | 107° |
| 2026-04-23 21:15 | -8.11198 | -37.71810 | 3488 ft | 163 kts | 107° |
| 2026-04-23 21:15 | -8.11528 | -37.70713 | 3488 ft | 163 kts | 107° |
| 2026-04-23 21:15 | -8.11853 | -37.69633 | 3486 ft | 162 kts | 107° |
| 2026-04-23 21:15 | -8.12186 | -37.68537 | 3497 ft | 165 kts | 107° |
| 2026-04-23 21:16 | -8.12521 | -37.67428 | 3489 ft | 165 kts | 107° |
| 2026-04-23 21:16 | -8.12853 | -37.66327 | 3488 ft | 163 kts | 107° |
| 2026-04-23 21:16 | -8.13185 | -37.65233 | 3487 ft | 162 kts | 107° |
| 2026-04-23 21:16 | -8.13516 | -37.64148 | 3487 ft | 162 kts | 107° |
| 2026-04-23 21:17 | -8.13846 | -37.63065 | 3487 ft | 161 kts | 107° |
| 2026-04-23 21:17 | -8.14178 | -37.61977 | 3489 ft | 162 kts | 107° |
| 2026-04-23 21:17 | -8.14513 | -37.60886 | 3491 ft | 163 kts | 107° |
| 2026-04-23 21:17 | -8.14850 | -37.59788 | 3496 ft | 164 kts | 107° |
| 2026-04-23 21:18 | -8.15186 | -37.58689 | 3492 ft | 164 kts | 107° |
| 2026-04-23 21:18 | -8.15523 | -37.57590 | 3490 ft | 164 kts | 107° |
| 2026-04-23 21:18 | -8.15858 | -37.56493 | 3485 ft | 163 kts | 107° |
| 2026-04-23 21:18 | -8.16195 | -37.55401 | 3490 ft | 163 kts | 107° |
| 2026-04-23 21:19 | -8.16533 | -37.54307 | 3496 ft | 165 kts | 107° |
| 2026-04-23 21:19 | -8.16870 | -37.53215 | 3489 ft | 164 kts | 108° |
| 2026-04-23 21:19 | -8.17209 | -37.52121 | 3486 ft | 163 kts | 107° |
| 2026-04-23 21:19 | -8.17546 | -37.51032 | 3489 ft | 162 kts | 107° |
| 2026-04-23 21:20 | -8.17882 | -37.49946 | 3488 ft | 162 kts | 107° |
| 2026-04-23 21:20 | -8.18219 | -37.48861 | 3487 ft | 162 kts | 108° |
| 2026-04-23 21:20 | -8.18555 | -37.47778 | 3487 ft | 162 kts | 107° |
| 2026-04-23 21:20 | -8.18874 | -37.46692 | 3480 ft | 161 kts | 102° |
| 2026-04-23 21:21 | -8.18668 | -37.45587 | 3445 ft | 162 kts | 68° |
| 2026-04-23 21:21 | -8.18254 | -37.44531 | 3448 ft | 162 kts | 69° |
| 2026-04-23 21:21 | -8.17848 | -37.43466 | 3453 ft | 163 kts | 69° |
| 2026-04-23 21:21 | -8.17438 | -37.42389 | 3450 ft | 164 kts | 69° |
| 2026-04-23 21:22 | -8.17036 | -37.41333 | 3451 ft | 163 kts | 69° |
| 2026-04-23 21:22 | -8.16629 | -37.40263 | 3453 ft | 163 kts | 69° |
| 2026-04-23 21:22 | -8.16223 | -37.39193 | 3453 ft | 163 kts | 69° |
| 2026-04-23 21:22 | -8.15815 | -37.38120 | 3455 ft | 164 kts | 69° |
| 2026-04-23 21:23 | -8.15406 | -37.37044 | 3456 ft | 164 kts | 69° |
| 2026-04-23 21:23 | -8.14999 | -37.35968 | 3453 ft | 163 kts | 69° |
| 2026-04-23 21:23 | -8.14592 | -37.34896 | 3453 ft | 164 kts | 69° |
| 2026-04-23 21:23 | -8.14185 | -37.33824 | 3449 ft | 164 kts | 69° |
| 2026-04-23 21:24 | -8.13778 | -37.32750 | 3455 ft | 164 kts | 69° |
| 2026-04-23 21:24 | -8.13373 | -37.31678 | 3454 ft | 163 kts | 69° |
| 2026-04-23 21:24 | -8.12976 | -37.30623 | 3452 ft | 163 kts | 69° |
| 2026-04-23 21:24 | -8.12569 | -37.29540 | 3454 ft | 163 kts | 69° |
| 2026-04-23 21:25 | -8.12170 | -37.28483 | 3451 ft | 163 kts | 69° |
| 2026-04-23 21:25 | -8.11766 | -37.27411 | 3453 ft | 163 kts | 69° |
| 2026-04-23 21:25 | -8.11366 | -37.26345 | 3447 ft | 162 kts | 69° |
| 2026-04-23 21:25 | -8.10966 | -37.25276 | 3452 ft | 162 kts | 69° |
| 2026-04-23 21:26 | -8.10567 | -37.24211 | 3453 ft | 163 kts | 69° |
| 2026-04-23 21:26 | -8.10166 | -37.23141 | 3453 ft | 163 kts | 69° |
| 2026-04-23 21:26 | -8.09764 | -37.22067 | 3453 ft | 163 kts | 69° |
| 2026-04-23 21:26 | -8.09363 | -37.20996 | 3452 ft | 163 kts | 69° |
| 2026-04-23 21:27 | -8.08964 | -37.19926 | 3452 ft | 163 kts | 69° |
| 2026-04-23 21:27 | -8.08564 | -37.18853 | 3451 ft | 163 kts | 69° |
| 2026-04-23 21:27 | -8.08166 | -37.17780 | 3452 ft | 163 kts | 69° |
| 2026-04-23 21:27 | -8.07768 | -37.16710 | 3454 ft | 164 kts | 69° |
| 2026-04-23 21:28 | -8.07366 | -37.15628 | 3454 ft | 164 kts | 69° |
| 2026-04-23 21:28 | -8.06967 | -37.14555 | 3451 ft | 163 kts | 69° |
| 2026-04-23 21:28 | -8.06571 | -37.13476 | 3455 ft | 164 kts | 69° |
| 2026-04-23 21:28 | -8.06170 | -37.12395 | 3454 ft | 165 kts | 69° |
| 2026-04-23 21:29 | -8.05771 | -37.11317 | 3456 ft | 163 kts | 69° |
| 2026-04-23 21:29 | -8.05375 | -37.10243 | 3454 ft | 164 kts | 69° |
| 2026-04-23 21:29 | -8.04983 | -37.09178 | 3450 ft | 163 kts | 69° |
| 2026-04-23 21:29 | -8.04589 | -37.08108 | 3449 ft | 162 kts | 69° |
| 2026-04-23 21:30 | -8.04198 | -37.07042 | 3453 ft | 163 kts | 69° |
| 2026-04-23 21:30 | -8.03801 | -37.05965 | 3453 ft | 164 kts | 69° |
| 2026-04-23 21:30 | -8.03405 | -37.04889 | 3453 ft | 163 kts | 69° |
| 2026-04-23 21:30 | -8.03010 | -37.03817 | 3450 ft | 163 kts | 69° |
| 2026-04-23 21:31 | -8.02617 | -37.02743 | 3452 ft | 162 kts | 69° |
| 2026-04-23 21:31 | -8.02227 | -37.01676 | 3453 ft | 163 kts | 69° |
| 2026-04-23 21:31 | -8.01833 | -37.00599 | 3448 ft | 163 kts | 69° |
| 2026-04-23 21:31 | -8.01439 | -36.99523 | 3452 ft | 164 kts | 69° |
| 2026-04-23 21:32 | -8.01044 | -36.98443 | 3450 ft | 163 kts | 69° |
| 2026-04-23 21:32 | -8.00651 | -36.97368 | 3452 ft | 163 kts | 69° |
| 2026-04-23 21:32 | -8.00258 | -36.96293 | 3454 ft | 163 kts | 69° |
| 2026-04-23 21:32 | -7.99999 | -36.95579 | 3450 ft | 163 kts | 69° |
| 2026-04-23 21:33 | -7.99610 | -36.94507 | 3454 ft | 163 kts | 70° |
| 2026-04-23 21:33 | -7.99222 | -36.93437 | 3450 ft | 162 kts | 70° |
| 2026-04-23 21:33 | -7.98706 | -36.92013 | 3454 ft | 164 kts | 70° |
| 2026-04-23 21:33 | -7.98453 | -36.91277 | 3445 ft | 163 kts | 74° |
| 2026-04-23 21:34 | -7.98576 | -36.89773 | 3417 ft | 163 kts | 100° |
| 2026-04-23 21:34 | -7.98708 | -36.89012 | 3422 ft | 163 kts | 100° |
| 2026-04-23 21:34 | -7.98896 | -36.87885 | 3422 ft | 163 kts | 99° |
| 2026-04-23 21:34 | -7.99087 | -36.86758 | 3419 ft | 162 kts | 99° |
| 2026-04-23 21:35 | -7.99338 | -36.85268 | 3421 ft | 162 kts | 99° |
| 2026-04-23 21:35 | -7.99464 | -36.84520 | 3424 ft | 164 kts | 99° |
| 2026-04-23 21:35 | -7.99656 | -36.83392 | 3418 ft | 162 kts | 99° |
| 2026-04-23 21:35 | -7.99847 | -36.82268 | 3420 ft | 163 kts | 99° |
| 2026-04-23 21:36 | -8.00232 | -36.80015 | 3422 ft | 163 kts | 99° |
| 2026-04-23 21:36 | -8.00425 | -36.78888 | 3421 ft | 163 kts | 99° |
| 2026-04-23 21:36 | -8.00617 | -36.77761 | 3422 ft | 162 kts | 100° |
| 2026-04-23 21:37 | -8.00811 | -36.76639 | 3420 ft | 163 kts | 100° |
| 2026-04-23 21:37 | -8.01005 | -36.75520 | 3418 ft | 162 kts | 100° |
| 2026-04-23 21:37 | -8.01198 | -36.74403 | 3422 ft | 162 kts | 100° |
| 2026-04-23 21:37 | -8.01394 | -36.73277 | 3420 ft | 163 kts | 100° |
| 2026-04-23 21:38 | -8.01588 | -36.72155 | 3420 ft | 162 kts | 100° |
| 2026-04-23 21:38 | -8.01783 | -36.71035 | 3420 ft | 162 kts | 100° |
| 2026-04-23 21:38 | -8.01979 | -36.69915 | 3418 ft | 162 kts | 100° |
| 2026-04-23 21:38 | -8.02172 | -36.68809 | 3417 ft | 162 kts | 100° |
| 2026-04-23 21:39 | -8.02368 | -36.67692 | 3419 ft | 162 kts | 100° |
| 2026-04-23 21:39 | -8.02564 | -36.66572 | 3420 ft | 162 kts | 100° |
| 2026-04-23 21:39 | -8.02760 | -36.65452 | 3419 ft | 162 kts | 100° |
| 2026-04-23 21:39 | -8.02959 | -36.64325 | 3420 ft | 163 kts | 100° |
| 2026-04-23 21:40 | -8.03154 | -36.63218 | 3522 ft | 157 kts | 100° |
| 2026-04-23 21:40 | -8.03343 | -36.62149 | 3643 ft | 153 kts | 100° |
| 2026-04-23 21:40 | -8.03531 | -36.61098 | 3765 ft | 152 kts | 100° |
| 2026-04-23 21:40 | -8.03715 | -36.60058 | 3891 ft | 151 kts | 100° |
| 2026-04-23 21:41 | -8.03902 | -36.59009 | 4017 ft | 152 kts | 100° |
| 2026-04-23 21:41 | -8.04088 | -36.57955 | 4144 ft | 152 kts | 100° |
| 2026-04-23 21:41 | -8.04276 | -36.56899 | 4272 ft | 153 kts | 100° |
| 2026-04-23 21:41 | -8.04466 | -36.55842 | 4294 ft | 157 kts | 101° |
| 2026-04-23 21:42 | -8.04663 | -36.54752 | 4301 ft | 160 kts | 100° |
| 2026-04-23 21:42 | -8.04862 | -36.53638 | 4303 ft | 162 kts | 100° |
| 2026-04-23 21:42 | -8.05065 | -36.52517 | 4301 ft | 162 kts | 100° |
| 2026-04-23 21:42 | -8.05266 | -36.51400 | 4301 ft | 161 kts | 100° |
| 2026-04-23 21:43 | -8.05467 | -36.50285 | 4302 ft | 162 kts | 100° |
| 2026-04-23 21:43 | -8.05671 | -36.49170 | 4303 ft | 161 kts | 101° |
| 2026-04-23 21:43 | -8.05873 | -36.48057 | 4301 ft | 161 kts | 101° |
| 2026-04-23 21:43 | -8.06076 | -36.46943 | 4301 ft | 161 kts | 101° |
| 2026-04-23 21:44 | -8.06279 | -36.45834 | 4304 ft | 161 kts | 101° |
| 2026-04-23 21:44 | -8.06482 | -36.44726 | 4302 ft | 160 kts | 101° |
| 2026-04-23 21:44 | -8.06685 | -36.43615 | 4305 ft | 161 kts | 101° |
| 2026-04-23 21:44 | -8.06891 | -36.42504 | 4301 ft | 162 kts | 101° |
| 2026-04-23 21:45 | -8.06958 | -36.42140 | 4301 ft | 161 kts | 101° |